createdAt,value
2022-08-03T00:00:18.449Z,99783.25
2022-08-03T00:00:50.680Z,99785.41
2022-08-03T00:01:22.623Z,99786.44
2022-08-03T00:01:54.537Z,99782.66
2022-08-03T00:02:26.546Z,99786.63
2022-08-03T00:02:58.529Z,99785.25
2022-08-03T00:03:30.599Z,99781.59
2022-08-03T00:04:02.741Z,99785.75
2022-08-03T00:04:34.710Z,99787.81
2022-08-03T00:05:08.475Z,99788.59
2022-08-03T00:05:40.524Z,99786.84
2022-08-03T00:06:36.947Z,99789.63
2022-08-03T00:07:09.289Z,99784.28
2022-08-03T00:07:41.863Z,99789.81
2022-08-03T00:08:13.813Z,99789.03
2022-08-03T00:08:51.587Z,99780.25
2022-08-03T00:09:23.495Z,99785.66
2022-08-03T00:09:55.440Z,99784.66
2022-08-03T00:10:27.470Z,99781.13
2022-08-03T00:10:59.729Z,99782.72
2022-08-03T00:11:31.661Z,99778.16
2022-08-03T00:12:04.065Z,99780.75
2022-08-03T00:12:36.501Z,99776.19
2022-08-03T00:13:08.822Z,99784.66
2022-08-03T00:13:41.740Z,99786.84
2022-08-03T00:14:13.825Z,99784.19
2022-08-03T00:14:45.819Z,99782.06
2022-08-03T00:15:17.865Z,99784.66
2022-08-03T00:15:49.891Z,99781.91
2022-08-03T00:16:21.920Z,99781.34
2022-08-03T00:16:55.189Z,99776.75
2022-08-03T00:17:27.866Z,99782.47
2022-08-03T00:17:59.811Z,99779.50
2022-08-03T00:18:31.884Z,99783.88
2022-08-03T00:19:04.411Z,99786.25
2022-08-03T00:19:36.653Z,99778.53
2022-08-03T00:20:08.983Z,99783.09
2022-08-03T00:20:40.955Z,99784.00
2022-08-03T00:21:12.919Z,99792.38
2022-08-03T00:21:46.752Z,99783.59
2022-08-03T00:22:18.865Z,99786.94
2022-08-03T00:22:51.625Z,99779.72
2022-08-03T00:23:23.635Z,99784.00
2022-08-03T00:23:55.655Z,99789.44
2022-08-03T00:24:27.760Z,99789.94
2022-08-03T00:25:00.382Z,99779.78
2022-08-03T00:25:33.500Z,99789.75
2022-08-03T00:26:05.552Z,99787.22
2022-08-03T00:26:37.935Z,99778.75
2022-08-03T00:27:09.856Z,99785.75
2022-08-03T00:27:41.798Z,99786.03
2022-08-03T00:28:14.121Z,99787.41
2022-08-03T00:28:47.705Z,99785.94
2022-08-03T00:29:19.706Z,99780.31
2022-08-03T00:29:59.450Z,99783.28
2022-08-03T00:30:33.213Z,99785.47
2022-08-03T00:31:05.175Z,99784.47
2022-08-03T00:31:51.509Z,99787.91
2022-08-03T00:32:24.983Z,99784.03
2022-08-03T00:32:57.845Z,99784.59
2022-08-03T00:33:59.934Z,99781.69
2022-08-03T00:34:29.839Z,99786.44
2022-08-03T00:35:11.352Z,99789.59
2022-08-03T00:35:50.607Z,99788.69
2022-08-03T00:36:23.171Z,99787.13
2022-08-03T00:36:55.109Z,99783.44
2022-08-03T00:37:41.489Z,99789.00
2022-08-03T00:38:14.009Z,99787.41
2022-08-03T00:38:46.287Z,99793.25
2022-08-03T00:39:19.656Z,99789.78
2022-08-03T00:39:51.585Z,99782.88
2022-08-03T00:40:23.659Z,99785.34
2022-08-03T00:40:56.500Z,99791.06
2022-08-03T00:41:28.385Z,99789.41
2022-08-03T00:42:06.449Z,99790.97
2022-08-03T00:42:55.938Z,99788.78
2022-08-03T00:43:27.928Z,99785.84
2022-08-03T00:44:00.145Z,99785.75
2022-08-03T00:44:32.086Z,99780.91
2022-08-03T00:45:04.213Z,99785.38
2022-08-03T00:45:39.493Z,99782.41
2022-08-03T00:46:11.457Z,99783.97
2022-08-03T00:46:43.371Z,99788.78
2022-08-03T00:47:15.292Z,99785.41
2022-08-03T00:47:47.950Z,99779.56
2022-08-03T00:48:33.242Z,99776.69
2022-08-03T00:49:06.160Z,99780.94
2022-08-03T00:49:41.456Z,99787.53
2022-08-03T00:50:14.085Z,99782.22
2022-08-03T00:50:46.201Z,99784.81
2022-08-03T00:51:23.423Z,99784.88
2022-08-03T00:51:55.551Z,99792.59
2022-08-03T00:52:27.487Z,99786.66
2022-08-03T00:53:00.117Z,99789.47
2022-08-03T00:53:32.521Z,99797.88
2022-08-03T00:54:04.955Z,99791.75
2022-08-03T00:54:40.609Z,99789.47
2022-08-03T00:55:12.817Z,99785.13
2022-08-03T00:55:45.128Z,99789.09
2022-08-03T00:56:17.931Z,99789.88
2022-08-03T00:56:59.633Z,99789.41
2022-08-03T00:57:33.660Z,99786.81
2022-08-03T00:58:06.795Z,99786.72
2022-08-03T00:58:38.716Z,99787.13
2022-08-03T00:59:10.836Z,99788.13
2022-08-03T00:59:46.656Z,99791.03
2022-08-03T01:00:22.849Z,99785.06
2022-08-03T01:00:54.941Z,99785.34
2022-08-03T01:01:30.619Z,99791.75
2022-08-03T01:02:04.692Z,99787.72
2022-08-03T01:02:37.716Z,99793.31
2022-08-03T01:03:12.259Z,99791.16
2022-08-03T01:03:44.401Z,99792.81
2022-08-03T01:04:16.406Z,99797.38
2022-08-03T01:04:48.798Z,99793.91
2022-08-03T01:05:21.726Z,99797.78
2022-08-03T01:06:38.915Z,99794.25
2022-08-03T01:07:20.078Z,99789.38
2022-08-03T01:08:01.257Z,99796.13
2022-08-03T01:08:56.023Z,99799.06
2022-08-03T01:10:10.354Z,99800.44
2022-08-03T01:10:57.695Z,99801.41
2022-08-03T01:12:00.117Z,99796.31
2022-08-03T01:12:52.271Z,99805.34
2022-08-03T01:14:02.354Z,99801.91
2022-08-03T01:15:02.957Z,99803.97
2022-08-03T01:15:51.113Z,99804.75
2022-08-03T01:16:52.369Z,99805.84
2022-08-03T01:17:40.621Z,99801.63
2022-08-03T01:18:27.580Z,99804.38
2022-08-03T01:18:59.452Z,99807.38
2022-08-03T01:19:36.996Z,99802.72
2022-08-03T01:20:11.921Z,99813.06
2022-08-03T01:20:55.814Z,99799.88
2022-08-03T01:21:49.353Z,99806.88
2022-08-03T01:22:36.293Z,99809.19
2022-08-03T01:23:23.115Z,99806.59
2022-08-03T01:24:18.984Z,99816.97
2022-08-03T01:25:02.892Z,99813.16
2022-08-03T01:25:37.793Z,99814.69
2022-08-03T01:26:28.146Z,99810.22
2022-08-03T01:27:03.233Z,99811.72
2022-08-03T01:28:08.473Z,99814.03
2022-08-03T01:29:10.742Z,99814.38
2022-08-03T01:29:54.356Z,99816.97
2022-08-03T01:30:31.574Z,99811.00
2022-08-03T01:31:10.354Z,99816.91
2022-08-03T01:32:53.531Z,99809.75
2022-08-03T01:33:01.141Z,99819.00
2022-08-03T01:33:43.339Z,99811.66
2022-08-03T01:34:17.249Z,99812.72
2022-08-03T01:34:59.110Z,99811.22
2022-08-03T01:35:43.249Z,99811.34
2022-08-03T01:36:19.540Z,99818.72
2022-08-03T01:36:54.150Z,99822.88
2022-08-03T01:37:32.127Z,99815.47
2022-08-03T01:38:08.456Z,99822.00
2022-08-03T01:38:54.113Z,99818.91
2022-08-03T01:39:29.021Z,99819.84
2022-08-03T01:40:04.058Z,99820.28
2022-08-03T01:40:39.518Z,99816.59
2022-08-03T01:41:15.708Z,99823.03
2022-08-03T01:42:00.995Z,99819.84
2022-08-03T01:42:34.884Z,99816.66
2022-08-03T01:43:09.018Z,99822.31
2022-08-03T01:44:27.947Z,99821.06
2022-08-03T01:44:43.187Z,99817.31
2022-08-03T01:45:18.686Z,99816.34
2022-08-03T01:45:52.317Z,99820.56
2022-08-03T01:46:26.295Z,99826.56
2022-08-03T01:47:00.560Z,99815.03
2022-08-03T01:47:33.613Z,99814.00
2022-08-03T01:48:07.950Z,99820.78
2022-08-03T01:48:43.259Z,99819.38
2022-08-03T01:49:16.116Z,99820.56
2022-08-03T01:49:50.298Z,99830.19
2022-08-03T01:50:27.382Z,99819.09
2022-08-03T01:51:00.383Z,99814.56
2022-08-03T01:52:02.901Z,99817.75
2022-08-03T01:52:27.518Z,99821.69
2022-08-03T01:52:59.924Z,99809.13
2022-08-03T01:53:33.870Z,99806.53
2022-08-03T01:54:09.908Z,99815.78
2022-08-03T01:54:44.447Z,99818.03
2022-08-03T01:55:20.040Z,99809.38
2022-08-03T01:55:55.623Z,99812.53
2022-08-03T01:56:30.160Z,99807.56
2022-08-03T01:57:03.862Z,99811.50
2022-08-03T01:58:05.365Z,99807.22
2022-08-03T01:58:32.160Z,99813.91
2022-08-03T01:59:05.637Z,99811.97
2022-08-03T01:59:39.468Z,99809.31
2022-08-03T02:00:12.620Z,99806.44
2022-08-03T02:00:45.444Z,99808.47
2022-08-03T02:01:19.286Z,99804.72
2022-08-03T02:02:31.959Z,99815.12
2022-08-03T02:02:44.806Z,99807.69
2022-08-03T02:03:18.132Z,99812.03
2022-08-03T02:03:56.713Z,99810.44
2022-08-03T02:04:35.051Z,99807.22
2022-08-03T02:05:10.594Z,99811.00
2022-08-03T02:05:45.773Z,99810.72
2022-08-03T02:07:00.668Z,99809.47
2022-08-03T02:07:14.615Z,99810.72
2022-08-03T02:07:48.341Z,99814.34
2022-08-03T02:08:21.879Z,99818.06
2022-08-03T02:08:55.345Z,99812.72
2022-08-03T02:09:30.172Z,99811.69
2022-08-03T02:10:06.126Z,99812.19
2022-08-03T02:10:41.844Z,99806.81
2022-08-03T02:11:13.921Z,99816.66
2022-08-03T02:11:47.472Z,99815.94
2022-08-03T02:12:21.378Z,99809.69
2022-08-03T02:12:54.676Z,99812.63
2022-08-03T02:13:27.922Z,99805.72
2022-08-03T02:14:03.984Z,99808.84
2022-08-03T02:14:37.629Z,99809.34
2022-08-03T02:15:11.251Z,99813.31
2022-08-03T02:15:47.499Z,99812.63
2022-08-03T02:16:21.824Z,99807.69
2022-08-03T02:16:55.891Z,99809.75
2022-08-03T02:17:39.278Z,99809.50
2022-08-03T02:18:13.369Z,99807.69
2022-08-03T02:18:47.597Z,99812.41
2022-08-03T02:19:20.456Z,99813.19
2022-08-03T02:19:53.805Z,99809.19
2022-08-03T02:20:28.669Z,99806.53
2022-08-03T02:21:05.385Z,99803.91
2022-08-03T02:21:56.530Z,99811.63
2022-08-03T02:22:34.610Z,99814.41
2022-08-03T02:23:07.304Z,99815.88
2022-08-03T02:23:40.355Z,99812.09
2022-08-03T02:24:12.776Z,99815.19
2022-08-03T02:24:49.344Z,99823.09
2022-08-03T02:25:23.633Z,99808.16
2022-08-03T02:26:02.824Z,99815.56
2022-08-03T02:26:37.177Z,99811.25
2022-08-03T02:27:23.784Z,99810.69
2022-08-03T02:28:01.831Z,99814.16
2022-08-03T02:28:38.529Z,99815.22
2022-08-03T02:29:16.420Z,99814.66
2022-08-03T02:29:51.417Z,99814.72
2022-08-03T02:30:31.195Z,99815.66
2022-08-03T02:31:05.644Z,99815.69
2022-08-03T02:31:38.479Z,99813.25
2022-08-03T02:32:16.549Z,99811.37
2022-08-03T02:32:56.008Z,99811.88
2022-08-03T02:33:39.028Z,99809.50
2022-08-03T02:34:14.955Z,99809.28
2022-08-03T02:34:50.854Z,99815.69
2022-08-03T02:35:26.509Z,99815.28
2022-08-03T02:36:01.251Z,99815.75
2022-08-03T02:36:37.671Z,99815.69
2022-08-03T02:37:11.712Z,99818.09
2022-08-03T02:37:52.684Z,99810.97
2022-08-03T02:38:31.511Z,99817.06
2022-08-03T02:39:05.432Z,99820.03
2022-08-03T02:39:40.873Z,99819.41
2022-08-03T02:40:13.987Z,99816.78
2022-08-03T02:40:47.082Z,99821.59
2022-08-03T02:41:30.799Z,99817.31
2022-08-03T02:42:03.226Z,99816.13
2022-08-03T02:42:38.208Z,99820.16
2022-08-03T02:43:17.686Z,99818.09
2022-08-03T02:44:05.699Z,99810.41
2022-08-03T02:44:41.603Z,99818.41
2022-08-03T02:45:15.865Z,99820.59
2022-08-03T02:45:50.026Z,99817.59
2022-08-03T02:46:28.508Z,99807.78
2022-08-03T02:47:09.785Z,99823.50
2022-08-03T02:47:53.433Z,99820.91
2022-08-03T02:48:30.706Z,99814.78
2022-08-03T02:49:42.138Z,99816.53
2022-08-03T02:50:01.872Z,99814.12
2022-08-03T02:50:35.221Z,99820.75
2022-08-03T02:51:07.941Z,99812.00
2022-08-03T02:51:41.583Z,99818.78
2022-08-03T02:52:15.748Z,99816.09
2022-08-03T02:52:51.073Z,99817.41
2022-08-03T02:53:24.668Z,99823.72
2022-08-03T02:54:00.647Z,99815.97
2022-08-03T02:54:34.803Z,99820.81
2022-08-03T02:55:10.525Z,99821.91
2022-08-03T02:55:43.328Z,99821.41
2022-08-03T02:56:19.439Z,99819.31
2022-08-03T02:56:53.671Z,99825.66
2022-08-03T02:57:28.054Z,99824.81
2022-08-03T02:58:01.586Z,99816.31
2022-08-03T02:58:34.699Z,99823.72
2022-08-03T02:59:08.495Z,99823.97
2022-08-03T02:59:42.655Z,99827.72
2022-08-03T03:00:19.641Z,99819.75
2022-08-03T03:01:02.433Z,99828.75
2022-08-03T03:01:34.402Z,99821.91
2022-08-03T03:02:07.131Z,99825.66
2022-08-03T03:02:43.909Z,99823.44
2022-08-03T03:03:17.472Z,99817.31
2022-08-03T03:03:53.851Z,99815.19
2022-08-03T03:04:33.008Z,99822.41
2022-08-03T03:05:56.803Z,99813.44
2022-08-03T03:05:59.845Z,99833.66
2022-08-03T03:06:33.063Z,99829.72
2022-08-03T03:07:05.611Z,99830.25
2022-08-03T03:07:52.276Z,99829.47
2022-08-03T03:08:28.736Z,99829.50
2022-08-03T03:09:01.645Z,99822.31
2022-08-03T03:09:41.975Z,99827.59
2022-08-03T03:10:15.421Z,99827.56
2022-08-03T03:10:48.993Z,99820.88
2022-08-03T03:11:26.733Z,99822.22
2022-08-03T03:11:59.339Z,99823.22
2022-08-03T03:12:32.088Z,99827.47
2022-08-03T03:13:04.162Z,99825.41
2022-08-03T03:13:37.204Z,99822.00
2022-08-03T03:14:12.424Z,99823.41
2022-08-03T03:14:44.439Z,99822.59
2022-08-03T03:15:16.491Z,99835.81
2022-08-03T03:15:49.812Z,99822.06
2022-08-03T03:16:22.591Z,99826.84
2022-08-03T03:16:57.989Z,99828.41
2022-08-03T03:17:31.736Z,99824.72
2022-08-03T03:18:05.429Z,99821.50
2022-08-03T03:18:38.227Z,99817.78
2022-08-03T03:19:12.749Z,99821.47
2022-08-03T03:19:46.065Z,99821.16
2022-08-03T03:20:26.238Z,99819.09
2022-08-03T03:21:04.281Z,99824.50
2022-08-03T03:21:37.975Z,99824.31
2022-08-03T03:22:11.540Z,99819.00
2022-08-03T03:22:45.196Z,99822.66
2022-08-03T03:23:17.931Z,99826.88
2022-08-03T03:23:51.951Z,99825.53
2022-08-03T03:24:23.986Z,99829.50
2022-08-03T03:24:56.431Z,99821.53
2022-08-03T03:25:33.934Z,99827.41
2022-08-03T03:26:06.702Z,99824.22
2022-08-03T03:26:42.425Z,99824.19
2022-08-03T03:27:16.645Z,99832.13
2022-08-03T03:27:49.595Z,99826.75
2022-08-03T03:28:25.076Z,99821.50
2022-08-03T03:28:57.203Z,99826.31
2022-08-03T03:29:29.652Z,99829.50
2022-08-03T03:30:02.630Z,99821.78
2022-08-03T03:30:35.013Z,99830.53
2022-08-03T03:31:07.881Z,99830.53
2022-08-03T03:31:40.451Z,99832.94
2022-08-03T03:32:12.469Z,99829.50
2022-08-03T03:32:44.788Z,99832.94
2022-08-03T03:33:17.715Z,99827.94
2022-08-03T03:33:50.058Z,99829.34
2022-08-03T03:34:22.436Z,99828.47
2022-08-03T03:34:57.010Z,99824.78
2022-08-03T03:35:29.342Z,99831.13
2022-08-03T03:36:01.745Z,99825.81
2022-08-03T03:36:33.781Z,99821.34
2022-08-03T03:37:06.078Z,99828.25
2022-08-03T03:37:38.125Z,99819.31
2022-08-03T03:38:10.505Z,99831.72
2022-08-03T03:38:42.499Z,99821.91
2022-08-03T03:39:15.590Z,99825.37
2022-08-03T03:39:48.120Z,99828.56
2022-08-03T03:40:21.771Z,99825.66
2022-08-03T03:40:55.427Z,99829.16
2022-08-03T03:41:27.602Z,99827.84
2022-08-03T03:42:06.004Z,99817.25
2022-08-03T03:42:38.499Z,99824.66
2022-08-03T03:43:12.283Z,99825.19
2022-08-03T03:43:44.433Z,99825.22
2022-08-03T03:44:16.573Z,99829.19
2022-08-03T03:44:48.866Z,99827.25
2022-08-03T03:45:21.990Z,99827.50
2022-08-03T03:45:55.309Z,99826.13
2022-08-03T03:46:27.338Z,99824.50
2022-08-03T03:46:59.309Z,99822.69
2022-08-03T03:47:32.806Z,99826.13
2022-08-03T03:48:05.963Z,99820.34
2022-08-03T03:48:39.391Z,99820.53
2022-08-03T03:49:12.919Z,99828.75
2022-08-03T03:49:46.063Z,99823.13
2022-08-03T03:50:19.133Z,99825.56
2022-08-03T03:50:51.335Z,99829.03
2022-08-03T03:51:23.318Z,99828.97
2022-08-03T03:51:56.855Z,99827.13
2022-08-03T03:52:28.857Z,99827.94
2022-08-03T03:53:02.049Z,99828.97
2022-08-03T03:53:33.958Z,99829.50
2022-08-03T03:54:07.215Z,99827.38
2022-08-03T03:54:43.381Z,99832.13
2022-08-03T03:55:19.034Z,99833.72
2022-08-03T03:55:59.518Z,99831.59
2022-08-03T03:56:34.211Z,99834.81
2022-08-03T03:57:06.125Z,99825.59
2022-08-03T03:57:38.041Z,99824.50
2022-08-03T03:58:10.012Z,99825.00
2022-08-03T03:58:41.975Z,99829.22
2022-08-03T03:59:14.244Z,99832.66
2022-08-03T03:59:46.144Z,99830.53
2022-08-03T04:00:19.499Z,99829.53
2022-08-03T04:00:53.944Z,99835.09
2022-08-03T04:01:27.414Z,99828.75
2022-08-03T04:01:59.835Z,99838.81
2022-08-03T04:02:31.742Z,99833.72
2022-08-03T04:03:03.757Z,99835.28
2022-08-03T04:03:35.943Z,99845.12
2022-08-03T04:04:26.649Z,99838.75
2022-08-03T04:05:16.980Z,99840.59
2022-08-03T04:06:08.084Z,99841.69
2022-08-03T04:06:59.061Z,99838.19
2022-08-03T04:08:05.069Z,99834.53
2022-08-03T04:08:55.582Z,99838.25
2022-08-03T04:09:45.994Z,99833.19
2022-08-03T04:10:40.819Z,99841.69
2022-08-03T04:11:29.124Z,99842.19
2022-08-03T04:12:04.615Z,99835.22
2022-08-03T04:12:37.606Z,99841.66
2022-08-03T04:13:22.985Z,99842.19
2022-08-03T04:14:10.951Z,99842.75
2022-08-03T04:14:44.057Z,99851.81
2022-08-03T04:15:18.223Z,99845.41
2022-08-03T04:15:50.837Z,99846.22
2022-08-03T04:16:26.702Z,99843.78
2022-08-03T04:17:02.560Z,99851.16
2022-08-03T04:17:36.317Z,99850.19
2022-08-03T04:18:14.106Z,99852.84
2022-08-03T04:18:50.491Z,99852.06
2022-08-03T04:19:31.522Z,99850.19
2022-08-03T04:20:04.337Z,99855.47
2022-08-03T04:20:38.881Z,99852.81
2022-08-03T04:21:13.564Z,99851.22
2022-08-03T04:21:49.980Z,99851.22
2022-08-03T04:22:26.968Z,99853.63
2022-08-03T04:23:00.701Z,99851.28
2022-08-03T04:23:36.018Z,99851.28
2022-08-03T04:24:11.767Z,99853.66
2022-08-03T04:24:48.645Z,99844.12
2022-08-03T04:25:23.547Z,99856.59
2022-08-03T04:25:56.552Z,99857.63
2022-08-03T04:26:32.950Z,99862.34
2022-08-03T04:27:08.743Z,99857.06
2022-08-03T04:27:42.518Z,99849.16
2022-08-03T04:28:30.636Z,99847.81
2022-08-03T04:29:06.126Z,99852.31
2022-08-03T04:29:44.759Z,99853.12
2022-08-03T04:30:20.915Z,99850.19
2022-08-03T04:30:53.800Z,99853.66
2022-08-03T04:31:27.308Z,99852.03
2022-08-03T04:32:01.051Z,99861.00
2022-08-03T04:32:37.263Z,99857.53
2022-08-03T04:33:09.323Z,99849.84
2022-08-03T04:33:43.838Z,99861.22
2022-08-03T04:34:16.534Z,99852.72
2022-08-03T04:34:48.666Z,99857.00
2022-08-03T04:35:20.959Z,99858.88
2022-08-03T04:36:22.317Z,99858.56
2022-08-03T04:37:01.585Z,99852.06
2022-08-03T04:37:40.135Z,99857.38
2022-08-03T04:38:14.478Z,99855.78
2022-08-03T04:39:01.724Z,99857.84
2022-08-03T04:39:34.539Z,99858.31
2022-08-03T04:40:10.638Z,99847.50
2022-08-03T04:40:44.451Z,99855.81
2022-08-03T04:41:17.831Z,99856.84
2022-08-03T04:42:02.226Z,99868.47
2022-08-03T04:42:42.124Z,99856.22
2022-08-03T04:43:16.806Z,99856.22
2022-08-03T04:43:51.838Z,99864.66
2022-08-03T04:44:28.430Z,99863.00
2022-08-03T04:45:03.667Z,99860.31
2022-08-03T04:45:36.702Z,99863.97
2022-08-03T04:46:10.360Z,99860.81
2022-08-03T04:46:46.730Z,99861.25
2022-08-03T04:47:25.199Z,99868.12
2022-08-03T04:47:58.251Z,99862.75
2022-08-03T04:48:30.479Z,99861.16
2022-08-03T04:49:03.381Z,99868.28
2022-08-03T04:49:37.931Z,99867.50
2022-08-03T04:50:13.546Z,99863.78
2022-08-03T04:50:48.120Z,99862.88
2022-08-03T04:51:20.364Z,99865.25
2022-08-03T04:51:53.283Z,99866.84
2022-08-03T04:52:25.416Z,99863.69
2022-08-03T04:52:57.324Z,99867.97
2022-08-03T04:53:29.289Z,99873.25
2022-08-03T04:54:02.148Z,99867.88
2022-08-03T04:54:50.004Z,99873.41
2022-08-03T04:55:40.705Z,99873.66
2022-08-03T04:56:12.678Z,99875.16
2022-08-03T04:56:44.815Z,99877.28
2022-08-03T04:57:22.347Z,99881.25
2022-08-03T04:57:55.910Z,99875.69
2022-08-03T04:58:28.487Z,99881.25
2022-08-03T04:59:00.497Z,99879.78
2022-08-03T04:59:32.419Z,99880.78
2022-08-03T05:00:06.481Z,99881.81
2022-08-03T05:00:38.654Z,99877.84
2022-08-03T05:01:11.010Z,99879.25
2022-08-03T05:01:43.143Z,99885.59
2022-08-03T05:02:16.196Z,99880.19
2022-08-03T05:02:48.332Z,99881.81
2022-08-03T05:03:24.325Z,99883.91
2022-08-03T05:03:57.158Z,99885.00
2022-08-03T05:04:29.105Z,99892.13
2022-08-03T05:05:01.100Z,99884.88
2022-08-03T05:05:50.225Z,99879.78
2022-08-03T05:06:25.007Z,99879.56
2022-08-03T05:06:57.187Z,99882.22
2022-08-03T05:07:36.404Z,99884.81
2022-08-03T05:08:11.048Z,99879.44
2022-08-03T05:08:46.047Z,99880.09
2022-08-03T05:09:33.475Z,99885.06
2022-08-03T05:10:15.706Z,99885.50
2022-08-03T05:10:48.633Z,99882.53
2022-08-03T05:11:21.075Z,99883.75
2022-08-03T05:11:54.629Z,99881.09
2022-08-03T05:12:30.638Z,99880.81
2022-08-03T05:13:05.262Z,99881.53
2022-08-03T05:13:37.157Z,99888.00
2022-08-03T05:14:09.168Z,99886.13
2022-08-03T05:14:41.267Z,99887.00
2022-08-03T05:15:13.706Z,99889.38
2022-08-03T05:15:45.744Z,99884.28
2022-08-03T05:16:18.033Z,99889.31
2022-08-03T05:16:49.990Z,99889.25
2022-08-03T05:17:23.292Z,99894.00
2022-08-03T05:17:55.292Z,99889.97
2022-08-03T05:18:27.230Z,99889.88
2022-08-03T05:18:59.136Z,99891.69
2022-08-03T05:19:31.962Z,99893.28
2022-08-03T05:20:04.656Z,99902.94
2022-08-03T05:20:36.577Z,99898.03
2022-08-03T05:21:09.787Z,99893.13
2022-08-03T05:21:52.858Z,99895.63
2022-08-03T05:22:25.039Z,99897.69
2022-08-03T05:22:57.776Z,99890.97
2022-08-03T05:23:29.716Z,99895.44
2022-08-03T05:24:01.675Z,99890.03
2022-08-03T05:24:33.604Z,99891.03
2022-08-03T05:25:05.861Z,99897.94
2022-08-03T05:25:37.752Z,99890.94
2022-08-03T05:26:14.246Z,99889.25
2022-08-03T05:26:46.494Z,99894.87
2022-08-03T05:27:21.193Z,99897.47
2022-08-03T05:27:53.211Z,99895.81
2022-08-03T05:28:25.136Z,99904.59
2022-08-03T05:28:57.075Z,99899.25
2022-08-03T05:29:29.013Z,99897.59
2022-08-03T05:30:32.321Z,99898.50
2022-08-03T05:30:54.195Z,99902.13
2022-08-03T05:31:26.118Z,99892.38
2022-08-03T05:31:58.547Z,99898.22
2022-08-03T05:32:30.525Z,99899.19
2022-08-03T05:33:03.751Z,99905.50
2022-08-03T05:33:35.743Z,99898.28
2022-08-03T05:34:07.944Z,99894.84
2022-08-03T05:34:39.915Z,99900.19
2022-08-03T05:36:01.319Z,99898.00
2022-08-03T05:36:04.631Z,99896.91
2022-08-03T05:36:36.559Z,99900.97
2022-08-03T05:37:09.918Z,99898.97
2022-08-03T05:37:42.367Z,99895.91
2022-08-03T05:38:28.706Z,99903.81
2022-08-03T05:39:05.119Z,99899.16
2022-08-03T05:39:38.057Z,99900.66
2022-08-03T05:40:11.115Z,99900.88
2022-08-03T05:40:56.900Z,99902.34
2022-08-03T05:41:36.808Z,99903.44
2022-08-03T05:42:10.659Z,99907.88
2022-08-03T05:42:42.548Z,99902.34
2022-08-03T05:43:14.541Z,99902.25
2022-08-03T05:43:46.803Z,99905.09
2022-08-03T05:44:18.803Z,99904.03
2022-08-03T05:44:50.998Z,99905.47
2022-08-03T05:45:28.093Z,99905.06
2022-08-03T05:46:12.037Z,99908.91
2022-08-03T05:46:44.881Z,99907.59
2022-08-03T05:47:17.137Z,99909.63
2022-08-03T05:47:50.969Z,99905.41
2022-08-03T05:48:22.846Z,99909.63
2022-08-03T05:48:54.835Z,99907.91
2022-08-03T05:49:26.876Z,99904.59
2022-08-03T05:49:58.990Z,99911.22
2022-08-03T05:50:30.928Z,99906.81
2022-08-03T05:51:04.775Z,99912.38
2022-08-03T05:51:37.260Z,99903.94
2022-08-03T05:52:10.649Z,99915.47
2022-08-03T05:52:46.533Z,99909.41
2022-08-03T05:53:18.980Z,99910.88
2022-08-03T05:53:50.994Z,99913.56
2022-08-03T05:54:22.941Z,99907.00
2022-08-03T05:55:15.098Z,99916.31
2022-08-03T05:55:48.588Z,99903.75
2022-08-03T05:56:27.477Z,99912.06
2022-08-03T05:56:59.401Z,99912.34
2022-08-03T05:57:31.330Z,99912.09
2022-08-03T05:58:03.923Z,99911.97
2022-08-03T05:58:35.848Z,99916.91
2022-08-03T05:59:35.761Z,99915.38
2022-08-03T05:59:59.697Z,99917.44
2022-08-03T06:00:31.895Z,99918.22
2022-08-03T06:01:04.277Z,99918.41
2022-08-03T06:01:36.919Z,99915.09
2022-08-03T06:02:09.050Z,99923.91
2022-08-03T06:02:41.540Z,99920.47
2022-08-03T06:03:15.175Z,99919.06
2022-08-03T06:03:47.666Z,99918.50
2022-08-03T06:04:19.828Z,99921.19
2022-08-03T06:04:52.061Z,99921.53
2022-08-03T06:05:28.260Z,99921.22
2022-08-03T06:06:00.938Z,99923.59
2022-08-03T06:06:33.813Z,99922.56
2022-08-03T06:07:05.756Z,99923.50
2022-08-03T06:07:37.934Z,99924.31
2022-08-03T06:08:09.825Z,99927.31
2022-08-03T06:08:48.986Z,99922.59
2022-08-03T06:09:20.969Z,99929.72
2022-08-03T06:10:35.481Z,99922.66
2022-08-03T06:10:44.975Z,99925.81
2022-08-03T06:11:17.415Z,99920.94
2022-08-03T06:11:49.727Z,99922.84
2022-08-03T06:12:21.725Z,99931.38
2022-08-03T06:12:53.700Z,99929.31
2022-08-03T06:13:25.598Z,99928.22
2022-08-03T06:13:57.566Z,99929.31
2022-08-03T06:14:29.522Z,99926.94
2022-08-03T06:15:02.940Z,99926.34
2022-08-03T06:15:35.510Z,99931.56
2022-08-03T06:16:07.616Z,99926.03
2022-08-03T06:16:39.644Z,99935.81
2022-08-03T06:17:11.890Z,99940.03
2022-08-03T06:17:51.429Z,99927.91
2022-08-03T06:18:24.721Z,99938.63
2022-08-03T06:18:56.698Z,99933.59
2022-08-03T06:19:28.622Z,99931.59
2022-08-03T06:20:00.681Z,99936.16
2022-08-03T06:20:32.645Z,99937.28
2022-08-03T06:21:11.075Z,99933.97
2022-08-03T06:21:47.713Z,99942.19
2022-08-03T06:22:20.251Z,99940.91
2022-08-03T06:23:01.202Z,99935.22
2022-08-03T06:23:52.933Z,99935.81
2022-08-03T06:24:25.364Z,99939.47
2022-08-03T06:24:58.648Z,99944.47
2022-08-03T06:25:36.323Z,99943.78
2022-08-03T06:26:08.220Z,99941.59
2022-08-03T06:26:40.197Z,99945.38
2022-08-03T06:27:12.377Z,99947.59
2022-08-03T06:27:45.568Z,99948.56
2022-08-03T06:28:51.792Z,99942.78
2022-08-03T06:29:11.596Z,99939.31
2022-08-03T06:29:43.583Z,99938.53
2022-08-03T06:30:21.050Z,99943.44
2022-08-03T06:30:53.454Z,99938.72
2022-08-03T06:31:33.466Z,99940.47
2022-08-03T06:32:06.134Z,99943.59
2022-08-03T06:32:39.379Z,99938.41
2022-08-03T06:33:11.739Z,99942.66
2022-08-03T06:34:31.052Z,99940.28
2022-08-03T06:34:35.860Z,99941.41
2022-08-03T06:35:09.532Z,99939.03
2022-08-03T06:35:42.480Z,99942.22
2022-08-03T06:36:17.119Z,99940.78
2022-08-03T06:36:52.275Z,99936.69
2022-08-03T06:37:24.645Z,99937.78
2022-08-03T06:37:57.074Z,99939.84
2022-08-03T06:38:29.297Z,99944.25
2022-08-03T06:39:02.247Z,99939.37
2022-08-03T06:39:34.284Z,99934.78
2022-08-03T06:40:06.625Z,99941.41
2022-08-03T06:40:40.166Z,99941.25
2022-08-03T06:41:12.088Z,99934.63
2022-08-03T06:41:44.847Z,99941.84
2022-08-03T06:42:17.184Z,99943.78
2022-08-03T06:42:49.317Z,99941.25
2022-08-03T06:43:22.307Z,99949.47
2022-08-03T06:44:03.410Z,99945.03
2022-08-03T06:44:37.643Z,99948.22
2022-08-03T06:45:10.664Z,99948.81
2022-08-03T06:45:42.635Z,99943.28
2022-08-03T06:46:19.973Z,99952.12
2022-08-03T06:46:52.517Z,99947.56
2022-08-03T06:47:24.446Z,99945.53
2022-08-03T06:48:06.454Z,99947.41
2022-08-03T06:48:38.357Z,99947.06
2022-08-03T06:49:10.671Z,99947.06
2022-08-03T06:49:42.824Z,99949.47
2022-08-03T06:50:16.928Z,99945.53
2022-08-03T06:50:50.458Z,99940.94
2022-08-03T06:52:03.050Z,99939.34
2022-08-03T06:52:15.585Z,99943.31
2022-08-03T06:53:09.211Z,99948.53
2022-08-03T06:53:50.382Z,99954.19
2022-08-03T06:54:24.311Z,99948.97
2022-08-03T06:54:56.256Z,99944.88
2022-08-03T06:55:28.442Z,99954.34
2022-08-03T06:56:00.439Z,99949.25
2022-08-03T06:56:32.352Z,99947.69
2022-08-03T06:57:04.911Z,99947.53
2022-08-03T06:57:37.010Z,99951.19
2022-08-03T06:58:08.938Z,99951.97
2022-08-03T06:58:41.086Z,99952.12
2022-08-03T07:00:07.737Z,99952.28
2022-08-03T07:00:11.874Z,99949.44
2022-08-03T07:00:44.660Z,99948.19
2022-08-03T07:01:18.904Z,99953.22
2022-08-03T07:01:51.002Z,99954.94